Time;durP1;ratioP1;P1;durP2;ratioP2;P2;SDS_P1;SDS_P2;PMS_P1;PMS_P2;Temp;Humidity;BMP_temperature;BMP_pressure;BME280_temperature;BME280_humidity;BME280_pressure;Samples;Min_cycle;Max_cycle;Signal;HPM_P1;HPM_P2
2022/05/13 00:00:10;;;;;;;12.40;5.85;;;11.00;99.90;;;;;;5013690;28;20393;-26
2022/05/13 00:02:36;;;;;;;12.50;4.88;;;10.90;99.90;;;;;;5013400;28;20505;-26
2022/05/13 00:05:04;;;;;;;10.07;3.97;;;10.90;99.90;;;;;;5014420;28;20130;-26
2022/05/13 00:07:30;;;;;;;8.82;3.72;;;10.90;99.90;;;;;;5013631;28;20054;-26
2022/05/13 00:10:05;;;;;;;10.35;4.32;;;11.00;99.90;;;;;;5013678;28;20057;-26
2022/05/13 00:12:34;;;;;;;11.38;4.88;;;11.10;99.90;;;;;;5013141;28;20053;-26
2022/05/13 00:15:01;;;;;;;9.80;3.60;;;10.90;99.90;;;;;;5013872;28;20048;-26
2022/05/13 00:17:27;;;;;;;10.90;4.35;;;10.90;99.90;;;;;;5013574;28;20466;-26
2022/05/13 00:19:54;;;;;;;7.30;3.45;;;10.90;99.90;;;;;;5013378;28;20046;-27
2022/05/13 00:22:20;;;;;;;10.52;3.70;;;10.90;99.90;;;;;;5012312;28;20046;-26
2022/05/13 00:24:46;;;;;;;14.90;4.47;;;10.90;99.90;;;;;;5013355;28;20049;-26
2022/05/13 00:27:12;;;;;;;13.95;4.07;;;10.90;99.90;;;;;;5013451;28;20045;-26
2022/05/13 00:29:38;;;;;;;9.25;3.83;;;10.90;99.90;;;;;;5013446;28;20046;-26
2022/05/13 00:32:04;;;;;;;15.10;4.00;;;11.10;99.90;;;;;;5012550;28;20050;-26
2022/05/13 00:34:31;;;;;;;16.73;4.75;;;11.00;99.90;;;;;;5013286;28;20050;-26
2022/05/13 00:36:56;;;;;;;9.80;5.00;;;11.00;99.90;;;;;;5013307;28;20496;-26
2022/05/13 00:39:22;;;;;;;10.05;4.20;;;11.00;99.90;;;;;;5013307;28;20042;-26
2022/05/13 00:41:48;;;;;;;10.75;4.15;;;11.00;1.00;;;;;;5012098;28;20046;-26
2022/05/13 00:44:14;;;;;;;14.63;4.55;;;11.00;1.00;;;;;;5012748;28;20054;-26
2022/05/13 00:46:40;;;;;;;11.30;4.25;;;11.30;1.00;;;;;;4995718;28;20053;-26
2022/05/13 00:49:11;;;;;;;14.13;5.47;;;11.00;1.00;;;;;;5013227;28;20049;-26
2022/05/13 00:51:41;;;;;;;12.02;5.05;;;11.00;1.00;;;;;;5013864;28;20112;-26
2022/05/13 00:54:10;;;;;;;18.90;6.30;;;11.00;1.00;;;;;;5012860;28;20446;-26
2022/05/13 00:56:36;;;;;;;13.00;4.47;;;11.20;1.00;;;;;;5016637;28;20041;-26
2022/05/13 00:59:05;;;;;;;12.30;4.90;;;11.00;1.00;;;;;;5016792;28;20129;-26
2022/05/13 01:01:30;;;;;;;14.70;5.07;;;11.20;1.00;;;;;;5016658;28;20082;-26
2022/05/13 01:04:04;;;;;;;15.55;5.72;;;11.10;1.00;;;;;;5016565;28;20041;-26
2022/05/13 01:06:31;;;;;;;12.35;4.55;;;11.10;1.00;;;;;;5015345;28;20045;-27
2022/05/13 01:08:57;;;;;;;11.93;4.57;;;11.30;1.00;;;;;;5017299;28;20125;-26
2022/05/13 01:11:26;;;;;;;13.48;4.82;;;11.10;1.00;;;;;;5016495;28;20133;-26
2022/05/13 01:13:58;;;;;;;15.25;4.72;;;11.20;1.00;;;;;;5016375;28;20045;-26
2022/05/13 01:16:24;;;;;;;17.83;5.47;;;11.20;1.00;;;;;;5016413;28;20045;-26
2022/05/13 01:18:50;;;;;;;19.08;5.60;;;11.20;1.00;;;;;;5016325;28;20097;-26
2022/05/13 01:21:25;;;;;;;17.67;5.38;;;11.20;1.00;;;;;;5016156;28;20058;-27
2022/05/13 01:23:52;;;;;;;18.83;5.50;;;11.30;1.00;;;;;;5016267;28;20056;-26
2022/05/13 01:26:22;;;;;;;23.58;5.38;;;11.50;1.00;;;;;;5016119;28;20089;-26
2022/05/13 01:28:53;;;;;;;13.85;4.50;;;11.20;1.00;;;;;;5016726;28;20050;-26
2022/05/13 01:31:31;;;;;;;14.23;4.05;;;11.20;1.00;;;;;;5014932;28;20383;-26
2022/05/13 01:33:59;;;;;;;11.13;4.18;;;11.30;1.00;;;;;;5016059;28;20053;-26
2022/05/13 01:36:25;;;;;;;15.73;5.07;;;11.40;1.00;;;;;;5015940;28;20041;-26
2022/05/13 01:38:51;;;;;;;14.25;5.10;;;11.70;1.00;;;;;;5015001;28;20049;-26
2022/05/13 01:41:18;;;;;;;12.18;4.22;;;11.30;1.00;;;;;;5015917;28;20050;-26
2022/05/13 01:43:45;;;;;;;14.70;4.88;;;11.30;1.00;;;;;;5015715;28;20108;-26
2022/05/13 01:46:11;;;;;;;19.17;5.07;;;11.40;1.00;;;;;;5016232;28;20049;-26
2022/05/13 01:48:38;;;;;;;19.13;6.15;;;11.40;1.00;;;;;;5015725;28;20397;-26
2022/05/13 01:51:04;;;;;;;17.77;6.10;;;11.50;8.10;;;;;;5015748;28;20061;-26
2022/05/13 01:53:31;;;;;;;15.75;5.22;;;11.50;1.00;;;;;;5015690;28;20080;-26
2022/05/13 01:55:57;;;;;;;19.73;6.03;;;11.40;3.90;;;;;;5014648;28;20049;-26
2022/05/13 01:58:25;;;;;;;12.10;4.63;;;11.50;29.00;;;;;;5014339;28;20400;-26
2022/05/13 02:00:53;;;;;;;21.13;6.18;;;11.60;27.70;;;;;;5015551;28;20045;-26
2022/05/13 02:06:03;;;;;;;18.20;5.15;;;11.60;68.60;;;;;;5014382;28;20501;-27
2022/05/13 02:08:30;;;;;;;20.50;5.70;;;11.40;96.50;;;;;;5015315;28;20093;-26
2022/05/13 02:10:56;;;;;;;16.70;4.47;;;11.60;91.70;;;;;;5014770;28;20049;-26
2022/05/13 02:13:22;;;;;;;18.50;5.72;;;11.40;99.90;;;;;;5015308;28;20061;-26
2022/05/13 02:15:48;;;;;;;18.15;5.80;;;11.40;99.90;;;;;;5013789;28;20042;-26
2022/05/13 02:18:13;;;;;;;13.93;5.18;;;11.50;99.90;;;;;;5014117;28;20052;-26
2022/05/13 02:20:40;;;;;;;20.60;5.40;;;11.50;99.90;;;;;;5013688;28;20278;-26
2022/05/13 02:23:07;;;;;;;20.92;5.50;;;11.50;99.90;;;;;;5015127;28;20050;-27
2022/05/13 02:25:34;;;;;;;22.17;5.70;;;11.50;99.90;;;;;;5015015;28;20084;-26
2022/05/13 02:28:01;;;;;;;21.48;7.28;;;11.50;99.90;;;;;;5014363;28;20045;-26
2022/05/13 02:30:28;;;;;;;24.55;6.25;;;11.70;99.90;;;;;;5015011;28;20053;-26
2022/05/13 02:32:54;;;;;;;22.40;6.72;;;11.40;99.90;;;;;;5015496;28;20517;-26
2022/05/13 02:35:20;;;;;;;21.80;6.75;;;11.60;99.90;;;;;;5014850;28;20052;-26
2022/05/13 02:37:47;;;;;;;17.20;5.57;;;11.50;99.90;;;;;;5015135;28;20139;-26
2022/05/13 02:40:13;;;;;;;19.00;6.65;;;11.70;99.90;;;;;;5014822;28;20394;-27
2022/05/13 02:42:39;;;;;;;17.13;5.68;;;11.50;99.90;;;;;;5014737;28;20048;-26
2022/05/13 02:45:09;;;;;;;22.58;5.53;;;11.60;99.90;;;;;;5013684;28;20042;-26
2022/05/13 02:47:36;;;;;;;18.75;6.05;;;11.50;99.90;;;;;;5014638;28;20046;-26
2022/05/13 02:50:18;;;;;;;17.67;6.55;;;11.40;99.90;;;;;;5015165;28;20390;-26
2022/05/13 02:52:49;;;;;;;23.50;6.93;;;11.40;99.90;;;;;;5013795;28;20061;-26
2022/05/13 02:55:16;;;;;;;25.00;6.70;;;11.40;99.90;;;;;;4997177;28;20106;-26
2022/05/13 02:57:42;;;;;;;26.10;7.00;;;11.50;99.90;;;;;;5015286;28;20065;-26
2022/05/13 03:00:09;;;;;;;20.63;6.65;;;11.60;99.90;;;;;;5014427;28;20478;-26
2022/05/13 03:02:35;;;;;;;28.23;6.65;;;11.40;99.90;;;;;;5014367;28;20054;-26
2022/05/13 03:05:01;;;;;;;29.80;6.90;;;11.60;99.90;;;;;;5013250;28;20482;-26
2022/05/13 03:07:27;;;;;;;25.95;7.45;;;11.40;99.90;;;;;;5014290;28;20050;-26
2022/05/13 03:09:52;;;;;;;30.80;7.57;;;11.50;99.90;;;;;;5014297;28;20054;-26
2022/05/13 03:12:18;;;;;;;18.55;7.38;;;11.70;99.90;;;;;;5013548;28;20046;-25
2022/05/13 03:14:44;;;;;;;24.02;7.25;;;11.40;99.90;;;;;;5014762;28;20042;-26
2022/05/13 03:17:10;;;;;;;22.70;7.10;;;11.60;99.90;;;;;;5013159;28;20175;-26
2022/05/13 03:19:37;;;;;;;24.40;7.07;;;11.40;99.90;;;;;;5014174;28;20046;-26
2022/05/13 03:22:04;;;;;;;21.08;6.03;;;11.80;99.90;;;;;;5014734;28;20069;-26
2022/05/13 03:24:29;;;;;;;19.20;6.03;;;11.40;99.90;;;;;;5013992;28;20527;-27
2022/05/13 03:26:56;;;;;;;26.02;6.57;;;11.40;99.90;;;;;;5014116;28;20054;-26
2022/05/13 03:29:21;;;;;;;26.13;7.63;;;11.60;99.90;;;;;;5014088;28;20069;-26
2022/05/13 03:31:47;;;;;;;20.23;6.80;;;11.40;99.90;;;;;;5013292;28;20485;-25
2022/05/13 03:34:13;;;;;;;23.40;6.40;;;11.40;99.90;;;;;;5012824;28;20052;-26
2022/05/13 03:36:40;;;;;;;20.55;6.18;;;11.50;99.90;;;;;;5014034;28;20038;-26
2022/05/13 03:39:06;;;;;;;20.98;6.60;;;11.40;99.90;;;;;;5013922;28;20068;-26
2022/05/13 03:41:31;;;;;;;24.63;6.95;;;11.90;99.90;;;;;;5012885;28;20037;-26
2022/05/13 03:43:57;;;;;;;20.02;7.88;;;11.60;99.90;;;;;;5013185;28;20173;-26
2022/05/13 03:46:23;;;;;;;22.60;6.82;;;11.40;99.90;;;;;;5014310;28;20458;-26
2022/05/13 03:48:48;;;;;;;25.38;7.20;;;11.40;99.90;;;;;;5013866;28;20048;-26
2022/05/13 03:51:14;;;;;;;21.05;7.47;;;11.40;1.00;;;;;;5013757;28;20050;-26
2022/05/13 03:53:40;;;;;;;24.40;6.90;;;11.40;1.00;;;;;;5013788;28;20052;-26
2022/05/13 03:56:07;;;;;;;24.08;6.95;;;11.60;1.00;;;;;;5013362;28;20046;-26
2022/05/13 03:58:33;;;;;;;24.23;6.55;;;11.40;99.90;;;;;;5013788;28;20046;-26
2022/05/13 04:00:59;;;;;;;34.90;8.57;;;11.50;99.90;;;;;;5013751;28;20050;-26
2022/05/13 04:03:24;;;;;;;23.15;7.57;;;11.40;99.90;;;;;;5012708;28;20436;-26
2022/05/13 04:11:19;;;;;;;26.30;6.93;;;11.70;99.90;;;;;;5014222;28;20119;-26
2022/05/13 04:16:29;;;;;;;20.67;6.47;;;11.40;99.90;;;;;;5013441;28;20060;-26
2022/05/13 04:18:55;;;;;;;18.17;5.45;;;11.70;99.90;;;;;;5014350;28;20046;-26
2022/05/13 04:21:24;;;;;;;21.52;6.60;;;11.40;99.90;;;;;;5013315;28;20409;-26
2022/05/13 04:23:52;;;;;;;25.05;6.80;;;11.50;99.90;;;;;;5012510;28;20050;-25
2022/05/13 04:26:19;;;;;;;19.30;6.20;;;11.30;99.90;;;;;;5014246;28;20052;-26
2022/05/13 04:28:48;;;;;;;23.88;5.78;;;11.50;99.90;;;;;;5013441;28;20049;-26
2022/05/13 04:31:17;;;;;;;20.80;4.90;;;11.50;99.90;;;;;;5017085;28;20049;-26
2022/05/13 04:33:43;;;;;;;31.45;5.45;;;11.50;99.90;;;;;;5017251;28;20386;-26
2022/05/13 04:36:10;;;;;;;17.85;4.78;;;11.90;99.90;;;;;;5017137;28;20402;-26
2022/05/13 04:38:37;;;;;;;22.08;4.40;;;11.90;99.90;;;;;;5017037;28;20049;-26
2022/05/13 04:43:49;;;;;;;14.90;4.78;;;12.00;51.70;;;;;;5017071;28;20141;-26
2022/05/13 04:46:15;;;;;;;18.88;4.45;;;12.10;1.00;;;;;;5016847;28;20046;-26
2022/05/13 04:48:41;;;;;;;18.83;3.78;;;12.00;1.00;;;;;;5016913;28;20049;-26
2022/05/13 04:51:06;;;;;;;16.90;4.32;;;12.00;1.00;;;;;;5017685;28;20107;-26
2022/05/13 04:53:36;;;;;;;16.20;3.67;;;12.20;1.00;;;;;;5016213;28;20563;-26
2022/05/13 04:56:03;;;;;;;16.23;3.33;;;12.10;99.90;;;;;;5016663;28;20107;-26
2022/05/13 04:58:29;;;;;;;16.38;3.70;;;12.20;99.90;;;;;;5016952;28;20508;-26
2022/05/13 05:00:57;;;;;;;18.23;3.92;;;12.20;99.90;;;;;;5016647;28;20050;-26
2022/05/13 05:03:24;;;;;;;11.82;2.95;;;12.30;99.90;;;;;;5016616;28;20041;-26
2022/05/13 05:05:50;;;;;;;14.27;2.92;;;12.40;99.90;;;;;;5016518;28;20037;-26
2022/05/13 05:08:17;;;;;;;11.55;3.00;;;12.20;99.90;;;;;;5017375;28;20038;-26
2022/05/13 05:10:44;;;;;;;16.17;3.25;;;12.30;99.90;;;;;;5017068;28;20048;-26
2022/05/13 05:13:35;;;;;;;10.80;2.75;;;12.20;99.90;;;;;;5016139;28;20449;-25
2022/05/13 05:16:01;;;;;;;10.25;2.45;;;12.20;99.90;;;;;;5017246;28;20085;-26
2022/05/13 05:18:28;;;;;;;12.82;3.92;;;12.20;99.90;;;;;;5017151;28;20054;-26
2022/05/13 05:20:54;;;;;;;11.15;2.65;;;12.30;99.90;;;;;;5015912;28;20138;-26
2022/05/13 05:23:23;;;;;;;13.23;2.75;;;12.20;99.90;;;;;;5015983;28;20076;-26
2022/05/13 05:25:49;;;;;;;6.43;1.95;;;12.30;99.90;;;;;;5016973;28;20451;-26
2022/05/13 05:28:16;;;;;;;7.68;2.05;;;12.20;99.90;;;;;;5015181;28;20544;-26
2022/05/13 05:30:43;;;;;;;11.63;3.00;;;12.30;99.90;;;;;;5016136;28;20052;-26
2022/05/13 05:33:09;;;;;;;8.90;2.15;;;12.30;99.90;;;;;;5015762;28;20518;-26
2022/05/13 05:35:34;;;;;;;11.90;3.20;;;12.30;99.90;;;;;;5016860;28;20084;-26
2022/05/13 05:38:00;;;;;;;10.38;2.40;;;12.30;99.90;;;;;;5015886;28;20465;-26
2022/05/13 05:40:26;;;;;;;8.18;2.30;;;12.50;99.90;;;;;;5015706;28;20382;-25
2022/05/13 05:42:52;;;;;;;7.90;2.33;;;12.50;99.90;;;;;;5015927;28;20104;-26
2022/05/13 05:45:20;;;;;;;8.90;2.20;;;12.40;99.90;;;;;;5015793;28;20050;-26
2022/05/13 05:47:45;;;;;;;9.15;2.75;;;12.30;99.90;;;;;;5015810;28;20548;-27
2022/05/13 05:50:15;;;;;;;5.68;2.40;;;12.40;99.90;;;;;;5015732;28;20129;-26
2022/05/13 05:52:41;;;;;;;11.07;2.22;;;12.30;99.90;;;;;;5015743;28;20133;-26
2022/05/13 05:58:11;;;;;;;7.30;1.90;;;12.30;99.90;;;;;;5015690;28;20046;-26
2022/05/13 06:00:46;;;;;;;8.43;1.90;;;12.30;99.90;;;;;;5016173;28;20056;-26
2022/05/13 06:03:13;;;;;;;9.05;1.75;;;12.40;99.90;;;;;;5016157;28;20041;-26
2022/05/13 06:05:40;;;;;;;6.82;2.17;;;12.50;99.90;;;;;;5015058;28;20485;-26
2022/05/13 06:08:06;;;;;;;8.23;2.58;;;12.50;99.90;;;;;;5015427;28;20042;-26
2022/05/13 06:10:35;;;;;;;7.57;2.47;;;12.60;99.90;;;;;;5014460;28;20054;-26
2022/05/13 06:13:02;;;;;;;11.70;2.47;;;12.60;99.90;;;;;;5015387;28;20405;-26
2022/05/13 06:15:28;;;;;;;8.77;1.95;;;12.60;99.90;;;;;;5015337;28;20085;-26
2022/05/13 06:17:56;;;;;;;4.28;1.58;;;12.60;90.40;;;;;;5015196;28;20045;-25
2022/05/13 06:20:25;;;;;;;11.25;2.70;;;12.70;60.40;;;;;;5013835;28;20094;-25
2022/05/13 06:22:51;;;;;;;7.47;2.08;;;12.80;68.20;;;;;;5014191;28;20054;-26
2022/05/13 06:25:19;;;;;;;9.63;2.00;;;12.70;91.80;;;;;;5015026;28;20046;-25
2022/05/13 06:27:45;;;;;;;8.65;1.58;;;12.80;59.80;;;;;;5014762;28;20513;-25
2022/05/13 06:30:20;;;;;;;8.00;2.00;;;12.80;41.60;;;;;;5014591;28;20434;-25
2022/05/13 06:32:46;;;;;;;6.22;2.03;;;12.90;27.70;;;;;;5014989;28;20053;-26
2022/05/13 06:35:12;;;;;;;13.10;3.63;;;12.90;15.00;;;;;;5014960;28;20050;-26
2022/05/13 06:37:38;;;;;;;7.88;1.92;;;13.20;59.50;;;;;;5013717;28;20056;-26
2022/05/13 06:40:06;;;;;;;9.00;2.00;;;13.10;15.00;;;;;;5014861;28;20050;-25
2022/05/13 06:42:32;;;;;;;11.55;2.65;;;13.20;1.00;;;;;;5015001;28;20042;-26
2022/05/13 06:44:58;;;;;;;9.52;2.13;;;13.30;1.00;;;;;;5013152;28;20528;-25
2022/05/13 06:47:23;;;;;;;9.40;2.45;;;13.40;1.00;;;;;;5014688;28;20054;-26
2022/05/13 06:49:49;;;;;;;6.78;1.98;;;13.50;1.00;;;;;;5013716;28;20046;-25
2022/05/13 06:52:15;;;;;;;7.70;1.40;;;13.60;1.00;;;;;;5014017;28;20053;-24
2022/05/13 06:54:42;;;;;;;9.60;1.70;;;13.40;1.00;;;;;;5014571;28;20050;-25
2022/05/13 06:57:08;;;;;;;6.30;1.73;;;13.40;1.00;;;;;;4997330;28;20137;-25
2022/05/13 06:59:34;;;;;;;9.50;2.05;;;13.30;1.00;;;;;;5013017;28;20476;-26
2022/05/13 07:02:00;;;;;;;7.00;1.85;;;13.30;1.00;;;;;;5014457;28;20046;-26
2022/05/13 07:04:26;;;;;;;9.30;2.20;;;13.30;1.00;;;;;;5014430;28;20393;-25
2022/05/13 07:06:52;;;;;;;7.40;1.73;;;13.30;1.00;;;;;;5014881;28;20128;-25
2022/05/13 07:09:17;;;;;;;8.65;2.45;;;13.20;1.00;;;;;;5014297;28;20473;-26
2022/05/13 07:11:46;;;;;;;10.48;2.47;;;13.20;1.00;;;;;;5014842;28;20049;-26
2022/05/13 07:14:12;;;;;;;7.13;1.65;;;13.20;1.00;;;;;;4997060;28;20057;-26
2022/05/13 07:16:38;;;;;;;6.97;2.03;;;13.40;1.00;;;;;;5013023;28;20474;-24
2022/05/13 07:19:05;;;;;;;7.80;2.30;;;13.20;1.00;;;;;;5013763;28;20050;-26
2022/05/13 07:21:30;;;;;;;7.75;1.88;;;13.40;1.00;;;;;;5014527;28;20058;-25
2022/05/13 07:23:56;;;;;;;11.75;2.00;;;13.60;1.00;;;;;;5014112;28;20056;-25
2022/05/13 07:26:22;;;;;;;11.32;2.72;;;13.50;1.00;;;;;;5014275;28;20038;-26
2022/05/13 07:28:48;;;;;;;6.38;1.63;;;14.00;1.00;;;;;;5014069;28;20042;-26
2022/05/13 07:31:14;;;;;;;9.65;1.83;;;14.00;1.00;;;;;;5014652;28;20112;-26
2022/05/13 07:33:40;;;;;;;6.32;1.67;;;14.10;1.00;;;;;;5014557;28;20050;-26
2022/05/13 07:36:06;;;;;;;9.48;3.05;;;14.50;1.00;;;;;;5014230;28;20393;-25
2022/05/13 07:38:34;;;;;;;7.75;1.95;;;14.30;1.00;;;;;;5013956;28;20123;-26
2022/05/13 07:41:33;;;;;;;10.52;2.33;;;14.50;1.00;;;;;;5014170;28;20494;-25
2022/05/13 07:43:52;;;;;;;7.63;1.30;;;14.60;1.00;;;;;;5013586;28;20437;-25
2022/05/13 07:46:18;;;;;;;8.27;2.00;;;14.50;99.90;;;;;;5014037;28;20087;-24
2022/05/13 07:48:44;;;;;;;9.73;1.88;;;14.70;99.90;;;;;;5014616;28;20049;-25
2022/05/13 07:51:11;;;;;;;10.95;1.90;;;14.50;99.90;;;;;;5013827;28;20107;-27
2022/05/13 07:53:37;;;;;;;9.38;1.63;;;14.30;99.90;;;;;;5014269;28;20594;-25
2022/05/13 07:56:03;;;;;;;7.30;1.48;;;14.00;1.00;;;;;;4996099;28;20161;-25
2022/05/13 07:58:29;;;;;;;6.60;1.63;;;14.10;1.00;;;;;;5013756;28;20041;-24
2022/05/13 08:00:56;;;;;;;8.10;1.77;;;14.30;1.00;;;;;;5013583;28;20057;-24
2022/05/13 08:03:22;;;;;;;5.90;1.73;;;14.30;1.00;;;;;;4997631;28;20046;-25
2022/05/13 08:05:50;;;;;;;10.40;1.98;;;14.20;1.00;;;;;;5017656;28;20183;-24
2022/05/13 08:08:22;;;;;;;6.28;1.65;;;14.20;1.00;;;;;;5017254;28;20492;-25
2022/05/13 08:10:54;;;;;;;7.68;1.30;;;14.40;1.00;;;;;;5017608;28;20541;-24
2022/05/13 08:13:20;;;;;;;7.95;1.67;;;14.40;99.90;;;;;;5017613;28;20050;-25
2022/05/13 08:15:46;;;;;;;7.30;1.35;;;14.20;99.90;;;;;;5016830;28;20053;-25
2022/05/13 08:18:12;;;;;;;8.07;1.88;;;14.00;99.90;;;;;;5017790;28;20050;-25
2022/05/13 08:20:38;;;;;;;8.07;1.55;;;14.20;1.00;;;;;;5017471;28;20100;-25
2022/05/13 08:23:04;;;;;;;5.53;1.42;;;14.00;1.00;;;;;;5017409;28;20054;-25
2022/05/13 08:25:30;;;;;;;6.60;1.45;;;13.90;1.00;;;;;;5016134;28;20041;-24
2022/05/13 08:27:56;;;;;;;9.55;1.60;;;13.80;1.00;;;;;;5017309;28;20081;-26
2022/05/13 08:30:22;;;;;;;5.22;1.27;;;14.30;1.00;;;;;;5016351;28;20077;-24
2022/05/13 08:32:48;;;;;;;8.02;1.60;;;14.70;99.90;;;;;;5017256;28;20371;-24
2022/05/13 08:35:15;;;;;;;7.47;1.90;;;14.30;99.90;;;;;;5016045;28;20049;-26
2022/05/13 08:37:58;;;;;;;6.78;1.52;;;14.10;1.00;;;;;;5017127;28;20049;-26
2022/05/13 08:40:43;;;;;;;4.10;1.52;;;14.00;1.00;;;;;;5017105;28;20052;-24
2022/05/13 08:43:14;;;;;;;8.27;1.33;;;14.30;1.00;;;;;;5017041;28;20050;-25
2022/05/13 08:45:49;;;;;;;9.30;1.75;;;14.90;99.90;;;;;;5016906;28;20038;-25
2022/05/13 08:48:17;;;;;;;5.45;1.05;;;15.50;99.90;;;;;;5016960;28;20060;-24
2022/05/13 08:50:57;;;;;;;7.05;1.52;;;16.30;99.90;;;;;;5016931;28;20075;-24
2022/05/13 08:53:34;;;;;;;7.88;1.48;;;16.80;99.90;;;;;;5016875;28;20049;-24
2022/05/13 08:56:08;;;;;;;13.77;1.75;;;16.30;99.90;;;;;;5016372;28;20048;-24
2022/05/13 08:59:03;;;;;;;10.65;2.45;;;15.50;99.90;;;;;;5017330;28;20049;-24
2022/05/13 09:01:34;;;;;;;6.78;1.70;;;15.10;99.90;;;;;;5022669;28;20068;-25
2022/05/13 09:04:09;;;;;;;4.32;1.45;;;14.80;99.90;;;;;;5016551;28;20081;-25
2022/05/13 09:06:52;;;;;;;6.07;0.90;;;15.70;99.90;;;;;;5016241;28;20461;-27
2022/05/13 09:09:18;;;;;;;8.98;1.80;;;16.10;99.90;;;;;;5016637;28;20050;-24
2022/05/13 09:11:59;;;;;;;7.40;1.20;;;15.70;99.90;;;;;;5016506;28;20048;-24
2022/05/13 09:14:40;;;;;;;4.53;1.30;;;15.30;99.90;;;;;;5016717;28;20473;-25
2022/05/13 09:17:32;;;;;;;5.90;1.10;;;14.90;99.90;;;;;;5015867;28;20045;-25
2022/05/13 09:20:01;;;;;;;5.53;1.30;;;14.70;99.90;;;;;;5016233;28;20049;-25
2022/05/13 09:22:39;;;;;;;3.58;1.17;;;15.50;99.90;;;;;;5016451;28;20061;-25
2022/05/13 09:25:06;;;;;;;7.20;1.35;;;15.80;99.90;;;;;;5016533;28;20041;-24
2022/05/13 09:27:47;;;;;;;3.83;1.27;;;15.60;99.90;;;;;;5016555;28;20401;-24
2022/05/13 09:30:17;;;;;;;7.20;1.63;;;15.20;99.90;;;;;;5016258;28;20100;-25
2022/05/13 09:32:43;;;;;;;5.90;1.25;;;15.00;99.90;;;;;;5015215;28;20096;-26
2022/05/13 09:35:24;;;;;;;5.55;1.27;;;14.80;99.90;;;;;;5016101;28;20081;-25
2022/05/13 09:37:49;;;;;;;3.05;1.10;;;14.80;99.90;;;;;;5016368;28;20053;-24
2022/05/13 09:40:22;;;;;;;3.45;0.90;;;14.70;99.90;;;;;;5014839;28;20399;-24
2022/05/13 09:42:52;;;;;;;6.20;1.40;;;14.50;99.90;;;;;;5016249;28;20058;-25
2022/05/13 09:45:26;;;;;;;6.10;1.40;;;14.40;99.90;;;;;;5015801;28;20046;-24
2022/05/13 09:48:21;;;;;;;5.70;1.45;;;14.40;99.90;;;;;;5015961;28;20081;-25
2022/05/13 09:50:53;;;;;;;6.72;1.17;;;14.30;99.90;;;;;;5019234;28;20064;-24
2022/05/13 09:53:21;;;;;;;7.00;1.63;;;14.40;99.90;;;;;;5015788;28;20120;-26
2022/05/13 09:55:49;;;;;;;8.40;1.55;;;14.90;99.90;;;;;;5015587;28;20485;-25
2022/05/13 09:58:26;;;;;;;14.10;2.75;;;15.40;99.90;;;;;;5015585;28;20053;-24
2022/05/13 10:00:57;;;;;;;4.25;1.73;;;15.50;99.90;;;;;;5015621;28;20125;-24
2022/05/13 10:03:36;;;;;;;6.10;1.55;;;15.80;99.90;;;;;;5016146;28;20054;-24
2022/05/13 10:06:11;;;;;;;5.53;1.35;;;15.60;99.90;;;;;;5015499;28;20041;-25
2022/05/13 10:08:48;;;;;;;4.72;1.30;;;15.50;99.90;;;;;;5015224;28;20533;-24
2022/05/13 10:14:07;;;;;;;7.28;1.58;;;17.30;99.90;;;;;;5014149;28;20057;-24
2022/05/13 10:16:43;;;;;;;7.15;1.60;;;17.50;35.30;;;;;;5015864;28;20373;-24
2022/05/13 10:19:11;;;;;;;7.55;1.77;;;17.70;1.00;;;;;;5015249;28;20061;-24
2022/05/13 10:21:49;;;;;;;4.40;1.23;;;18.10;1.00;;;;;;5015981;28;20389;-24
2022/05/13 10:24:24;;;;;;;8.38;2.13;;;18.00;58.60;;;;;;5015506;28;20072;-24
2022/05/13 10:26:51;;;;;;;7.57;1.38;;;17.60;1.00;;;;;;5013207;28;20562;-25
2022/05/13 10:29:29;;;;;;;6.38;1.30;;;17.30;16.90;;;;;;5014804;28;20401;-24
2022/05/13 10:31:57;;;;;;;4.30;0.93;;;17.40;69.60;;;;;;5015638;28;20088;-24
2022/05/13 10:34:40;;;;;;;5.38;1.45;;;17.10;18.10;;;;;;5015779;28;20085;-24
2022/05/13 10:37:21;;;;;;;4.72;1.10;;;17.20;99.90;;;;;;5013987;28;20081;-24
2022/05/13 10:39:52;;;;;;;5.20;1.08;;;17.20;1.00;;;;;;5014930;28;20056;-24
2022/05/13 10:42:26;;;;;;;6.88;1.73;;;17.50;1.00;;;;;;5014864;28;20046;-24
2022/05/13 10:44:58;;;;;;;6.03;1.02;;;17.50;1.00;;;;;;5014357;28;20065;-25
2022/05/13 10:47:44;;;;;;;6.38;1.20;;;17.10;1.00;;;;;;5015092;28;20096;-24
2022/05/13 10:50:29;;;;;;;6.80;1.10;;;17.00;1.00;;;;;;5014747;28;20045;-25
2022/05/13 10:53:13;;;;;;;5.43;1.20;;;16.40;96.00;;;;;;5015496;28;20050;-24
2022/05/13 10:56:02;;;;;;;10.13;1.75;;;15.70;48.90;;;;;;4997561;28;20053;-24
2022/05/13 10:58:49;;;;;;;7.40;1.92;;;15.40;99.90;;;;;;5014774;28;20111;-24
2022/05/13 11:01:43;;;;;;;5.97;1.42;;;15.30;99.90;;;;;;5013697;28;20478;-24
2022/05/13 11:04:20;;;;;;;6.47;1.67;;;15.30;99.90;;;;;;5013759;28;20050;-24
2022/05/13 11:07:01;;;;;;;8.63;1.77;;;15.50;99.90;;;;;;5014341;28;20046;-24
2022/05/13 11:09:45;;;;;;;10.20;1.60;;;15.50;99.90;;;;;;5014738;28;20050;-24
2022/05/13 11:12:39;;;;;;;9.90;2.20;;;15.50;99.90;;;;;;5014255;28;20049;-24
2022/05/13 11:15:18;;;;;;;10.68;1.95;;;15.50;99.90;;;;;;5015194;28;20049;-24
2022/05/13 11:17:59;;;;;;;4.97;1.35;;;15.40;99.90;;;;;;5014178;28;20453;-24
2022/05/13 11:20:43;;;;;;;8.25;1.73;;;15.50;99.90;;;;;;5014773;28;20057;-23
2022/05/13 11:23:42;;;;;;;5.90;1.75;;;15.60;99.90;;;;;;5014203;28;20155;-24
2022/05/13 11:26:13;;;;;;;5.47;1.70;;;15.60;99.90;;;;;;5014891;28;20052;-24
2022/05/13 11:29:03;;;;;;;6.68;1.38;;;15.60;99.90;;;;;;5014051;28;20053;-24
2022/05/13 11:31:49;;;;;;;5.60;1.75;;;15.60;99.90;;;;;;5013694;28;20064;-24
2022/05/13 11:34:41;;;;;;;10.68;2.03;;;15.40;99.90;;;;;;5014607;28;20092;-24
2022/05/13 11:37:12;;;;;;;7.57;1.75;;;15.20;99.90;;;;;;5013759;28;20108;-24
2022/05/13 11:40:01;;;;;;;7.10;2.45;;;15.20;99.90;;;;;;5014015;28;20046;-24
2022/05/13 11:42:36;;;;;;;6.65;1.77;;;15.30;99.90;;;;;;4996935;28;20045;-24
2022/05/13 11:45:20;;;;;;;10.43;2.40;;;15.60;99.90;;;;;;5014130;28;20064;-24
2022/05/13 11:48:16;;;;;;;10.18;2.13;;;15.70;99.90;;;;;;5014484;28;20078;-24
2022/05/13 11:50:41;;;;;;;5.10;1.35;;;15.50;99.90;;;;;;4996870;28;20057;-24
2022/05/13 11:53:07;;;;;;;6.60;1.60;;;15.40;99.90;;;;;;5012632;28;20409;-24
2022/05/13 11:55:39;;;;;;;8.95;2.05;;;16.00;99.90;;;;;;5013723;28;20132;-24
2022/05/13 11:58:06;;;;;;;6.10;1.50;;;16.10;99.90;;;;;;5013761;28;20104;-24
2022/05/13 12:00:35;;;;;;;6.93;1.50;;;15.70;99.90;;;;;;5012559;28;20180;-24
2022/05/13 12:03:03;;;;;;;7.82;1.83;;;15.60;98.80;;;;;;5013719;28;20050;-24
2022/05/13 12:05:32;;;;;;;7.07;1.42;;;15.50;99.90;;;;;;5013638;28;20045;-24
2022/05/13 12:08:03;;;;;;;9.93;1.90;;;15.30;99.90;;;;;;5013694;28;20052;-24
2022/05/13 12:10:46;;;;;;;7.93;1.48;;;15.40;99.90;;;;;;5013706;28;20042;-24
2022/05/13 12:13:21;;;;;;;5.22;1.42;;;15.40;99.90;;;;;;5013666;28;20053;-24
2022/05/13 12:16:12;;;;;;;8.40;1.85;;;16.00;99.90;;;;;;5013712;28;20046;-24
2022/05/13 12:19:09;;;;;;;6.80;1.55;;;16.90;99.90;;;;;;5014427;28;20042;-24
2022/05/13 12:21:50;;;;;;;14.23;2.33;;;17.00;99.90;;;;;;5013228;28;20077;-24
2022/05/13 12:24:22;;;;;;;8.07;1.55;;;17.50;99.90;;;;;;5013846;28;20450;-24
2022/05/13 12:26:53;;;;;;;6.35;1.25;;;17.80;99.90;;;;;;5013411;28;20121;-24
2022/05/13 12:29:38;;;;;;;11.70;2.15;;;17.00;13.00;;;;;;5013453;28;20056;-24
2022/05/13 12:32:04;;;;;;;18.30;2.83;;;16.80;1.00;;;;;;5013565;28;20056;-24
2022/05/13 12:37:35;;;;;;;10.23;2.15;;;16.80;99.90;;;;;;5013761;28;20104;-24
2022/05/13 12:40:02;;;;;;;9.75;1.83;;;16.70;88.70;;;;;;5012922;28;20374;-24
2022/05/13 12:42:46;;;;;;;10.80;2.33;;;16.70;99.90;;;;;;5012193;28;20046;-24
2022/05/13 12:45:38;;;;;;;9.40;2.60;;;16.70;99.90;;;;;;5013058;28;20049;-24
2022/05/13 12:48:06;;;;;;;10.85;2.13;;;16.40;97.40;;;;;;5013536;28;20481;-24
2022/05/13 12:51:07;;;;;;;8.85;2.00;;;17.00;99.90;;;;;;5012707;28;20378;-24
2022/05/13 12:53:40;;;;;;;6.78;1.92;;;17.00;99.90;;;;;;5018835;28;20093;-24
2022/05/13 12:56:18;;;;;;;10.32;2.88;;;16.70;99.90;;;;;;5016825;28;20046;-24
2022/05/13 12:58:52;;;;;;;6.82;1.42;;;16.60;99.90;;;;;;5017415;28;20413;-24
2022/05/13 13:01:18;;;;;;;4.90;1.35;;;16.90;71.00;;;;;;5016766;28;20497;-24
2022/05/13 13:03:46;;;;;;;6.15;2.00;;;17.10;1.00;;;;;;5016051;28;20081;-24
2022/05/13 13:06:17;;;;;;;6.47;1.60;;;17.30;1.00;;;;;;5015393;28;20081;-24
2022/05/13 13:08:46;;;;;;;11.18;1.95;;;17.20;1.00;;;;;;5015428;28;20041;-24
2022/05/13 13:11:23;;;;;;;8.70;1.45;;;16.60;1.00;;;;;;5016581;28;20046;-24
2022/05/13 13:14:16;;;;;;;9.65;1.85;;;16.40;12.10;;;;;;5017189;28;20473;-24
2022/05/13 13:16:49;;;;;;;14.00;2.25;;;16.40;71.10;;;;;;5017062;28;20044;-24
2022/05/13 13:19:23;;;;;;;7.03;1.13;;;16.30;1.00;;;;;;5015826;28;20057;-24
2022/05/13 13:22:00;;;;;;;4.50;1.00;;;16.10;99.90;;;;;;5016829;28;20465;-24
2022/05/13 13:24:33;;;;;;;14.15;2.45;;;16.40;42.20;;;;;;5016327;28;20108;-24